sensor_id;sensor_type;location;lat;lon;timestamp;pressure;altitude;pressure_sealevel;temperature;humidity
44988;BME280;35735;52.226;21.254;2023-03-03T00:02:50;100714.31;;;-1.89;100.00
44988;BME280;35735;52.226;21.254;2023-03-03T00:07:51;100711.59;;;-1.90;100.00
44988;BME280;35735;52.226;21.254;2023-03-03T00:12:51;100717.94;;;-1.87;100.00
44988;BME280;35735;52.226;21.254;2023-03-03T00:17:52;100706.28;;;-1.90;100.00
44988;BME280;35735;52.226;21.254;2023-03-03T00:22:52;100705.44;;;-1.89;100.00
44988;BME280;35735;52.226;21.254;2023-03-03T00:27:53;100709.16;;;-1.86;100.00
44988;BME280;35735;52.226;21.254;2023-03-03T00:32:54;100700.84;;;-1.93;100.00
44988;BME280;35735;52.226;21.254;2023-03-03T00:37:57;100681.06;;;-2.00;100.00
44988;BME280;35735;52.226;21.254;2023-03-03T00:42:59;100679.16;;;-2.02;100.00
44988;BME280;35735;52.226;21.254;2023-03-03T00:48:15;100667.91;;;-2.15;100.00
44988;BME280;35735;52.226;21.254;2023-03-03T00:53:23;100664.28;;;-2.17;100.00
44988;BME280;35735;52.226;21.254;2023-03-03T00:58:25;100650.03;;;-2.19;100.00
44988;BME280;35735;52.226;21.254;2023-03-03T01:03:26;100654.50;;;-2.34;100.00
44988;BME280;35735;52.226;21.254;2023-03-03T01:08:27;100654.84;;;-2.28;100.00
44988;BME280;35735;52.226;21.254;2023-03-03T01:13:30;100638.16;;;-2.27;100.00
44988;BME280;35735;52.226;21.254;2023-03-03T01:18:34;100635.66;;;-2.24;100.00
44988;BME280;35735;52.226;21.254;2023-03-03T01:23:35;100632.03;;;-2.26;100.00
44988;BME280;35735;52.226;21.254;2023-03-03T01:28:36;100620.37;;;-2.30;100.00
44988;BME280;35735;52.226;21.254;2023-03-03T01:33:36;100614.84;;;-2.18;100.00
44988;BME280;35735;52.226;21.254;2023-03-03T01:38:37;100600.81;;;-2.17;100.00
44988;BME280;35735;52.226;21.254;2023-03-03T01:43:43;100603.69;;;-2.12;100.00
44988;BME280;35735;52.226;21.254;2023-03-03T01:48:45;100596.75;;;-2.10;100.00
44988;BME280;35735;52.226;21.254;2023-03-03T01:53:52;100586.56;;;-2.19;100.00
44988;BME280;35735;52.226;21.254;2023-03-03T02:04:05;100591.28;;;-2.46;100.00
44988;BME280;35735;52.226;21.254;2023-03-03T02:14:18;100590.72;;;-2.40;100.00
44988;BME280;35735;52.226;21.254;2023-03-03T02:24:50;100589.25;;;-2.35;100.00
44988;BME280;35735;52.226;21.254;2023-03-03T02:29:53;100585.19;;;-2.29;100.00
44988;BME280;35735;52.226;21.254;2023-03-03T02:34:53;100588.41;;;-2.18;100.00
44988;BME280;35735;52.226;21.254;2023-03-03T02:39:54;100576.84;;;-2.03;100.00
44988;BME280;35735;52.226;21.254;2023-03-03T02:44:54;100579.47;;;-1.87;100.00
44988;BME280;35735;52.226;21.254;2023-03-03T02:49:55;100575.63;;;-1.92;100.00
44988;BME280;35735;52.226;21.254;2023-03-03T02:54:55;100577.62;;;-1.88;100.00
44988;BME280;35735;52.226;21.254;2023-03-03T02:59:56;100570.16;;;-1.79;100.00
44988;BME280;35735;52.226;21.254;2023-03-03T03:04:56;100562.72;;;-1.70;100.00
44988;BME280;35735;52.226;21.254;2023-03-03T03:09:57;100567.25;;;-1.67;100.00
44988;BME280;35735;52.226;21.254;2023-03-03T03:14:57;100565.69;;;-1.63;100.00
44988;BME280;35735;52.226;21.254;2023-03-03T03:19:58;100556.41;;;-1.55;100.00
44988;BME280;35735;52.226;21.254;2023-03-03T03:24:58;100552.25;;;-1.50;100.00
44988;BME280;35735;52.226;21.254;2023-03-03T03:29:59;100557.31;;;-1.37;100.00
44988;BME280;35735;52.226;21.254;2023-03-03T03:35:00;100555.41;;;-1.39;100.00
44988;BME280;35735;52.226;21.254;2023-03-03T03:40:00;100556.09;;;-1.43;100.00
44988;BME280;35735;52.226;21.254;2023-03-03T03:45:01;100550.97;;;-1.40;100.00
44988;BME280;35735;52.226;21.254;2023-03-03T03:50:01;100554.12;;;-1.29;100.00
44988;BME280;35735;52.226;21.254;2023-03-03T03:55:02;100554.72;;;-1.17;100.00
44988;BME280;35735;52.226;21.254;2023-03-03T04:00:05;100543.53;;;-1.12;100.00
44988;BME280;35735;52.226;21.254;2023-03-03T04:05:06;100532.78;;;-1.15;100.00
44988;BME280;35735;52.226;21.254;2023-03-03T04:10:07;100528.31;;;-0.98;100.00
44988;BME280;35735;52.226;21.254;2023-03-03T04:15:11;100534.88;;;-0.89;100.00
44988;BME280;35735;52.226;21.254;2023-03-03T04:20:14;100525.81;;;-0.95;100.00
44988;BME280;35735;52.226;21.254;2023-03-03T04:25:16;100527.97;;;-0.86;100.00
44988;BME280;35735;52.226;21.254;2023-03-03T04:30:16;100522.75;;;-0.84;100.00
44988;BME280;35735;52.226;21.254;2023-03-03T04:35:17;100507.81;;;-0.82;100.00
44988;BME280;35735;52.226;21.254;2023-03-03T04:40:18;100506.03;;;-0.83;100.00
44988;BME280;35735;52.226;21.254;2023-03-03T04:45:18;100504.13;;;-0.86;100.00
44988;BME280;35735;52.226;21.254;2023-03-03T04:50:19;100501.87;;;-0.96;100.00
44988;BME280;35735;52.226;21.254;2023-03-03T04:55:19;100498.72;;;-1.07;100.00
44988;BME280;35735;52.226;21.254;2023-03-03T05:00:20;100482.06;;;-1.04;100.00
44988;BME280;35735;52.226;21.254;2023-03-03T05:05:20;100481.91;;;-1.07;100.00
44988;BME280;35735;52.226;21.254;2023-03-03T05:10:21;100486.47;;;-1.05;100.00
44988;BME280;35735;52.226;21.254;2023-03-03T05:15:22;100473.12;;;-1.06;100.00
44988;BME280;35735;52.226;21.254;2023-03-03T05:20:23;100477.53;;;-1.07;100.00
44988;BME280;35735;52.226;21.254;2023-03-03T05:25:24;100479.41;;;-1.04;100.00
44988;BME280;35735;52.226;21.254;2023-03-03T05:30:24;100483.88;;;-1.03;100.00
44988;BME280;35735;52.226;21.254;2023-03-03T05:35:25;100481.84;;;-1.09;100.00
44988;BME280;35735;52.226;21.254;2023-03-03T05:40:26;100473.28;;;-1.03;100.00
44988;BME280;35735;52.226;21.254;2023-03-03T05:45:27;100474.19;;;-1.03;100.00
44988;BME280;35735;52.226;21.254;2023-03-03T05:50:27;100472.25;;;-1.07;100.00
44988;BME280;35735;52.226;21.254;2023-03-03T05:55:28;100476.12;;;-0.99;100.00
44988;BME280;35735;52.226;21.254;2023-03-03T06:00:28;100477.47;;;-0.89;100.00
44988;BME280;35735;52.226;21.254;2023-03-03T06:05:29;100471.84;;;-0.77;100.00
44988;BME280;35735;52.226;21.254;2023-03-03T06:10:29;100461.53;;;-0.71;100.00
44988;BME280;35735;52.226;21.254;2023-03-03T06:15:30;100463.59;;;-0.64;100.00
44988;BME280;35735;52.226;21.254;2023-03-03T06:20:31;100455.72;;;-0.62;100.00
44988;BME280;35735;52.226;21.254;2023-03-03T06:25:31;100463.53;;;-0.65;100.00
44988;BME280;35735;52.226;21.254;2023-03-03T06:30:32;100478.53;;;-0.66;100.00
44988;BME280;35735;52.226;21.254;2023-03-03T06:35:32;100474.78;;;-0.51;100.00
44988;BME280;35735;52.226;21.254;2023-03-03T06:40:33;100472.47;;;-0.44;100.00
44988;BME280;35735;52.226;21.254;2023-03-03T06:45:33;100466.47;;;-0.20;100.00
44988;BME280;35735;52.226;21.254;2023-03-03T06:50:34;100463.87;;;0.03;100.00
44988;BME280;35735;52.226;21.254;2023-03-03T06:55:35;100463.38;;;0.11;100.00
44988;BME280;35735;52.226;21.254;2023-03-03T07:00:35;100473.84;;;0.08;100.00
44988;BME280;35735;52.226;21.254;2023-03-03T07:05:36;100458.44;;;-0.01;100.00
44988;BME280;35735;52.226;21.254;2023-03-03T07:10:37;100471.66;;;-0.02;100.00
44988;BME280;35735;52.226;21.254;2023-03-03T07:15:38;100477.53;;;-0.09;100.00
44988;BME280;35735;52.226;21.254;2023-03-03T07:20:39;100479.34;;;-0.08;100.00
44988;BME280;35735;52.226;21.254;2023-03-03T07:25:39;100475.28;;;0.00;100.00
44988;BME280;35735;52.226;21.254;2023-03-03T07:30:41;100469.84;;;-0.03;100.00
44988;BME280;35735;52.226;21.254;2023-03-03T07:35:42;100472.28;;;-0.08;100.00
44988;BME280;35735;52.226;21.254;2023-03-03T07:40:54;100472.03;;;-0.14;100.00
44988;BME280;35735;52.226;21.254;2023-03-03T07:46:04;100469.12;;;-0.20;100.00
44988;BME280;35735;52.226;21.254;2023-03-03T07:51:20;100480.63;;;-0.20;100.00
44988;BME280;35735;52.226;21.254;2023-03-03T07:56:29;100491.44;;;-0.15;100.00
44988;BME280;35735;52.226;21.254;2023-03-03T08:01:39;100487.31;;;-0.08;100.00
44988;BME280;35735;52.226;21.254;2023-03-03T08:06:44;100499.59;;;-0.10;100.00
44988;BME280;35735;52.226;21.254;2023-03-03T08:17:20;100503.34;;;-0.05;100.00
44988;BME280;35735;52.226;21.254;2023-03-03T08:22:33;100508.25;;;0.05;100.00
44988;BME280;35735;52.226;21.254;2023-03-03T08:27:34;100514.66;;;0.10;100.00
44988;BME280;35735;52.226;21.254;2023-03-03T08:32:34;100511.28;;;0.14;100.00
44988;BME280;35735;52.226;21.254;2023-03-03T08:37:35;100511.50;;;0.19;100.00
44988;BME280;35735;52.226;21.254;2023-03-03T08:42:36;100520.62;;;0.26;100.00
44988;BME280;35735;52.226;21.254;2023-03-03T08:47:37;100546.59;;;0.33;100.00
44988;BME280;35735;52.226;21.254;2023-03-03T08:52:38;100546.06;;;0.42;100.00
44988;BME280;35735;52.226;21.254;2023-03-03T08:57:39;100536.63;;;0.48;100.00
44988;BME280;35735;52.226;21.254;2023-03-03T09:02:39;100543.28;;;0.60;100.00
44988;BME280;35735;52.226;21.254;2023-03-03T09:07:41;100532.81;;;0.63;100.00
44988;BME280;35735;52.226;21.254;2023-03-03T09:12:43;100529.31;;;0.64;100.00
44988;BME280;35735;52.226;21.254;2023-03-03T09:17:45;100528.59;;;0.68;100.00
44988;BME280;35735;52.226;21.254;2023-03-03T09:22:46;100518.78;;;0.67;100.00
44988;BME280;35735;52.226;21.254;2023-03-03T09:27:47;100517.00;;;0.66;100.00
44988;BME280;35735;52.226;21.254;2023-03-03T09:32:47;100500.38;;;0.71;100.00
44988;BME280;35735;52.226;21.254;2023-03-03T09:37:49;100494.19;;;0.71;100.00
44988;BME280;35735;52.226;21.254;2023-03-03T09:43:08;100489.13;;;0.77;100.00
44988;BME280;35735;52.226;21.254;2023-03-03T09:48:18;100480.87;;;0.92;100.00
44988;BME280;35735;52.226;21.254;2023-03-03T09:53:49;100474.19;;;1.03;100.00
44988;BME280;35735;52.226;21.254;2023-03-03T09:59:12;100471.84;;;1.11;100.00
44988;BME280;35735;52.226;21.254;2023-03-03T10:04:43;100467.59;;;1.16;100.00
44988;BME280;35735;52.226;21.254;2023-03-03T10:10:36;100486.34;;;1.19;100.00
44988;BME280;35735;52.226;21.254;2023-03-03T10:21:09;100482.94;;;1.23;100.00
44988;BME280;35735;52.226;21.254;2023-03-03T10:54:33;100495.97;;;1.16;100.00
44988;BME280;35735;52.226;21.254;2023-03-03T11:20:57;100485.25;;;1.14;100.00
44988;BME280;35735;52.226;21.254;2023-03-03T11:26:08;100481.41;;;1.06;100.00
44988;BME280;35735;52.226;21.254;2023-03-03T11:31:48;100487.31;;;0.99;100.00
44988;BME280;35735;52.226;21.254;2023-03-03T11:37:09;100483.69;;;0.97;100.00
44988;BME280;35735;52.226;21.254;2023-03-03T11:42:27;100480.81;;;0.90;100.00
44988;BME280;35735;52.226;21.254;2023-03-03T11:47:44;100482.38;;;0.85;100.00
44988;BME280;35735;52.226;21.254;2023-03-03T11:52:50;100458.59;;;0.90;100.00
44988;BME280;35735;52.226;21.254;2023-03-03T12:03:55;100476.47;;;0.71;100.00
44988;BME280;35735;52.226;21.254;2023-03-03T12:09:38;100488.47;;;0.62;100.00
44988;BME280;35735;52.226;21.254;2023-03-03T12:20:16;100481.59;;;0.67;100.00
44988;BME280;35735;52.226;21.254;2023-03-03T12:31:14;100478.44;;;0.54;100.00
44988;BME280;35735;52.226;21.254;2023-03-03T12:36:53;100482.81;;;0.52;100.00
44988;BME280;35735;52.226;21.254;2023-03-03T12:47:45;100475.31;;;0.42;100.00
44988;BME280;35735;52.226;21.254;2023-03-03T12:58:48;100487.22;;;0.31;100.00
44988;BME280;35735;52.226;21.254;2023-03-03T13:04:10;100475.09;;;0.37;100.00
44988;BME280;35735;52.226;21.254;2023-03-03T13:09:48;100476.12;;;0.41;100.00
44988;BME280;35735;52.226;21.254;2023-03-03T13:15:00;100473.19;;;0.35;100.00
44988;BME280;35735;52.226;21.254;2023-03-03T13:26:01;100475.53;;;0.48;100.00
44988;BME280;35735;52.226;21.254;2023-03-03T13:31:15;100466.72;;;0.49;100.00
44988;BME280;35735;52.226;21.254;2023-03-03T13:36:24;100472.19;;;0.52;100.00
44988;BME280;35735;52.226;21.254;2023-03-03T13:41:38;100465.22;;;0.56;100.00
44988;BME280;35735;52.226;21.254;2023-03-03T13:52:31;100453.25;;;0.45;100.00
44988;BME280;35735;52.226;21.254;2023-03-03T13:57:53;100455.97;;;0.46;100.00
44988;BME280;35735;52.226;21.254;2023-03-03T14:08:45;100446.97;;;0.43;100.00
44988;BME280;35735;52.226;21.254;2023-03-03T14:19:51;100435.25;;;0.59;100.00
44988;BME280;35735;52.226;21.254;2023-03-03T14:25:05;100436.22;;;0.61;100.00
44988;BME280;35735;52.226;21.254;2023-03-03T14:35:29;100444.94;;;0.58;100.00
44988;BME280;35735;52.226;21.254;2023-03-03T14:40:41;100444.94;;;0.58;100.00
44988;BME280;35735;52.226;21.254;2023-03-03T14:45:43;100449.72;;;0.67;100.00
44988;BME280;35735;52.226;21.254;2023-03-03T14:50:49;100444.53;;;0.70;100.00
44988;BME280;35735;52.226;21.254;2023-03-03T14:55:52;100433.44;;;0.58;100.00
44988;BME280;35735;52.226;21.254;2023-03-03T15:11:36;100428.81;;;0.53;100.00
44988;BME280;35735;52.226;21.254;2023-03-03T15:16:36;100437.09;;;0.61;100.00
44988;BME280;35735;52.226;21.254;2023-03-03T15:21:41;100430.97;;;0.62;100.00
44988;BME280;35735;52.226;21.254;2023-03-03T15:26:55;100437.16;;;0.63;100.00
44988;BME280;35735;52.226;21.254;2023-03-03T15:32:14;100444.06;;;0.58;100.00
44988;BME280;35735;52.226;21.254;2023-03-03T15:37:46;100447.66;;;0.60;100.00
44988;BME280;35735;52.226;21.254;2023-03-03T15:43:12;100444.75;;;0.53;100.00
44988;BME280;35735;52.226;21.254;2023-03-03T15:48:38;100440.50;;;0.57;100.00
44988;BME280;35735;52.226;21.254;2023-03-03T15:54:20;100431.53;;;0.55;100.00
44988;BME280;35735;52.226;21.254;2023-03-03T16:05:13;100431.03;;;0.43;100.00
44988;BME280;35735;52.226;21.254;2023-03-03T16:10:54;100428.31;;;0.41;100.00
44988;BME280;35735;52.226;21.254;2023-03-03T16:16:06;100429.28;;;0.43;100.00
44988;BME280;35735;52.226;21.254;2023-03-03T16:27:17;100420.34;;;0.41;100.00
44988;BME280;35735;52.226;21.254;2023-03-03T16:32:51;100421.03;;;0.35;100.00
44988;BME280;35735;52.226;21.254;2023-03-03T16:49:24;100418.31;;;0.34;100.00
44988;BME280;35735;52.226;21.254;2023-03-03T16:59:41;100409.75;;;0.41;100.00
44988;BME280;35735;52.226;21.254;2023-03-03T17:05:23;100406.75;;;0.33;100.00
44988;BME280;35735;52.226;21.254;2023-03-03T17:10:32;100409.13;;;0.26;100.00
44988;BME280;35735;52.226;21.254;2023-03-03T17:27:12;100409.25;;;0.29;100.00
44988;BME280;35735;52.226;21.254;2023-03-03T17:48:24;100422.47;;;0.06;100.00
44988;BME280;35735;52.226;21.254;2023-03-03T17:53:46;100407.25;;;0.02;100.00
44988;BME280;35735;52.226;21.254;2023-03-03T17:59:05;100402.78;;;0.01;100.00
44988;BME280;35735;52.226;21.254;2023-03-03T18:04:24;100394.88;;;0.03;100.00
44988;BME280;35735;52.226;21.254;2023-03-03T18:15:13;100396.56;;;0.01;100.00
44988;BME280;35735;52.226;21.254;2023-03-03T18:42:27;100383.03;;;-0.06;100.00
44988;BME280;35735;52.226;21.254;2023-03-03T18:53:15;100379.84;;;0.03;100.00
44988;BME280;35735;52.226;21.254;2023-03-03T18:58:27;100368.16;;;-0.02;100.00
44988;BME280;35735;52.226;21.254;2023-03-03T19:08:52;100372.13;;;-0.13;100.00
44988;BME280;35735;52.226;21.254;2023-03-03T19:14:13;100371.00;;;-0.19;100.00
44988;BME280;35735;52.226;21.254;2023-03-03T19:30:20;100341.72;;;-0.22;100.00
44988;BME280;35735;52.226;21.254;2023-03-03T19:35:49;100343.62;;;-0.17;100.00
44988;BME280;35735;52.226;21.254;2023-03-03T19:41:34;100339.22;;;-0.17;100.00
44988;BME280;35735;52.226;21.254;2023-03-03T19:47:07;100354.53;;;-0.11;100.00
44988;BME280;35735;52.226;21.254;2023-03-03T19:53:05;100345.59;;;-0.13;100.00
44988;BME280;35735;52.226;21.254;2023-03-03T20:14:48;100299.50;;;-0.15;100.00
44988;BME280;35735;52.226;21.254;2023-03-03T20:20:00;100299.50;;;-0.15;100.00
44988;BME280;35735;52.226;21.254;2023-03-03T20:25:10;100305.53;;;-0.20;100.00
44988;BME280;35735;52.226;21.254;2023-03-03T20:36:51;100267.53;;;-0.19;100.00
44988;BME280;35735;52.226;21.254;2023-03-03T20:41:43;100255.13;;;-0.20;100.00
44988;BME280;35735;52.226;21.254;2023-03-03T20:47:32;100285.13;;;-0.21;100.00
44988;BME280;35735;52.226;21.254;2023-03-03T20:53:03;100272.75;;;-0.22;100.00
44988;BME280;35735;52.226;21.254;2023-03-03T20:58:36;100266.00;;;-0.13;100.00
44988;BME280;35735;52.226;21.254;2023-03-03T21:03:45;100265.88;;;-0.16;100.00
44988;BME280;35735;52.226;21.254;2023-03-03T21:13:53;100253.44;;;-0.17;100.00
44988;BME280;35735;52.226;21.254;2023-03-03T21:19:09;100248.25;;;-0.14;100.00
44988;BME280;35735;52.226;21.254;2023-03-03T21:24:11;100234.38;;;-0.07;100.00
44988;BME280;35735;52.226;21.254;2023-03-03T21:39:43;100218.16;;;0.08;100.00
44988;BME280;35735;52.226;21.254;2023-03-03T21:49:49;100194.34;;;0.09;100.00
44988;BME280;35735;52.226;21.254;2023-03-03T21:54:51;100192.53;;;0.08;100.00
44988;BME280;35735;52.226;21.254;2023-03-03T21:59:51;100180.13;;;0.07;100.00
44988;BME280;35735;52.226;21.254;2023-03-03T22:04:52;100177.47;;;0.07;100.00
44988;BME280;35735;52.226;21.254;2023-03-03T22:09:52;100158.94;;;0.09;100.00
44988;BME280;35735;52.226;21.254;2023-03-03T22:14:53;100162.63;;;0.12;100.00
44988;BME280;35735;52.226;21.254;2023-03-03T22:19:53;100148.47;;;0.13;100.00
44988;BME280;35735;52.226;21.254;2023-03-03T22:24:54;100145.94;;;0.16;100.00
44988;BME280;35735;52.226;21.254;2023-03-03T22:29:54;100142.56;;;0.21;100.00
44988;BME280;35735;52.226;21.254;2023-03-03T22:34:55;100132.66;;;0.16;100.00
44988;BME280;35735;52.226;21.254;2023-03-03T22:39:55;100121.94;;;0.13;100.00
44988;BME280;35735;52.226;21.254;2023-03-03T22:44:56;100101.56;;;0.12;100.00
44988;BME280;35735;52.226;21.254;2023-03-03T22:49:57;100085.66;;;0.12;100.00
44988;BME280;35735;52.226;21.254;2023-03-03T22:54:58;100083.09;;;0.15;100.00
44988;BME280;35735;52.226;21.254;2023-03-03T22:59:59;100070.91;;;0.21;100.00
44988;BME280;35735;52.226;21.254;2023-03-03T23:04:59;100063.66;;;0.16;100.00
44988;BME280;35735;52.226;21.254;2023-03-03T23:10:00;100061.88;;;0.15;100.00
44988;BME280;35735;52.226;21.254;2023-03-03T23:15:02;100054.50;;;0.08;100.00
44988;BME280;35735;52.226;21.254;2023-03-03T23:20:03;100050.91;;;0.06;100.00
44988;BME280;35735;52.226;21.254;2023-03-03T23:25:04;100036.91;;;0.10;100.00
44988;BME280;35735;52.226;21.254;2023-03-03T23:30:06;100031.69;;;0.13;100.00
44988;BME280;35735;52.226;21.254;2023-03-03T23:35:08;100019.19;;;0.09;100.00
44988;BME280;35735;52.226;21.254;2023-03-03T23:40:09;100029.91;;;0.12;100.00
44988;BME280;35735;52.226;21.254;2023-03-03T23:45:12;100012.16;;;0.11;100.00
44988;BME280;35735;52.226;21.254;2023-03-03T23:50:13;100004.25;;;0.13;100.00
44988;BME280;35735;52.226;21.254;2023-03-03T23:55:13;99988.28;;;0.11;100.00
